sensor_id;sensor_type;location;lat;lon;timestamp;P1;durP1;ratioP1;P2;durP2;ratioP2
38859;SDS011;24609;48.316;16.174;2022-08-26T00:01:34;11.95;;;7.20;;
38859;SDS011;24609;48.316;16.174;2022-08-26T00:04:01;10.77;;;7.68;;
38859;SDS011;24609;48.316;16.174;2022-08-26T00:06:27;10.98;;;7.05;;
38859;SDS011;24609;48.316;16.174;2022-08-26T00:08:55;8.73;;;6.75;;
38859;SDS011;24609;48.316;16.174;2022-08-26T00:11:21;11.15;;;6.82;;
38859;SDS011;24609;48.316;16.174;2022-08-26T00:13:46;10.85;;;7.82;;
38859;SDS011;24609;48.316;16.174;2022-08-26T00:16:12;11.30;;;8.38;;
38859;SDS011;24609;48.316;16.174;2022-08-26T00:18:38;10.63;;;7.95;;
38859;SDS011;24609;48.316;16.174;2022-08-26T00:21:05;10.98;;;7.85;;
38859;SDS011;24609;48.316;16.174;2022-08-26T00:23:31;9.80;;;6.45;;
38859;SDS011;24609;48.316;16.174;2022-08-26T00:25:57;14.73;;;7.60;;
38859;SDS011;24609;48.316;16.174;2022-08-26T00:28:23;12.13;;;7.68;;
38859;SDS011;24609;48.316;16.174;2022-08-26T00:30:49;12.30;;;7.65;;
38859;SDS011;24609;48.316;16.174;2022-08-26T00:33:16;13.52;;;7.25;;
38859;SDS011;24609;48.316;16.174;2022-08-26T00:35:44;9.82;;;7.60;;
38859;SDS011;24609;48.316;16.174;2022-08-26T00:38:11;11.65;;;7.85;;
38859;SDS011;24609;48.316;16.174;2022-08-26T00:40:42;10.93;;;7.38;;
38859;SDS011;24609;48.316;16.174;2022-08-26T00:43:13;10.75;;;6.72;;
38859;SDS011;24609;48.316;16.174;2022-08-26T00:45:44;12.00;;;7.72;;
38859;SDS011;24609;48.316;16.174;2022-08-26T00:48:14;11.52;;;7.55;;
38859;SDS011;24609;48.316;16.174;2022-08-26T00:50:46;16.65;;;7.93;;
38859;SDS011;24609;48.316;16.174;2022-08-26T00:53:16;10.95;;;7.72;;
38859;SDS011;24609;48.316;16.174;2022-08-26T00:55:51;11.75;;;7.88;;
38859;SDS011;24609;48.316;16.174;2022-08-26T00:58:24;13.07;;;7.55;;
38859;SDS011;24609;48.316;16.174;2022-08-26T01:00:52;14.10;;;7.20;;
38859;SDS011;24609;48.316;16.174;2022-08-26T01:03:18;12.45;;;8.50;;
38859;SDS011;24609;48.316;16.174;2022-08-26T01:05:49;9.25;;;7.72;;
38859;SDS011;24609;48.316;16.174;2022-08-26T01:08:19;11.68;;;7.05;;
38859;SDS011;24609;48.316;16.174;2022-08-26T01:10:45;11.25;;;6.75;;
38859;SDS011;24609;48.316;16.174;2022-08-26T01:13:11;12.30;;;6.72;;
38859;SDS011;24609;48.316;16.174;2022-08-26T01:15:42;12.00;;;7.00;;
38859;SDS011;24609;48.316;16.174;2022-08-26T01:18:10;10.70;;;7.00;;
38859;SDS011;24609;48.316;16.174;2022-08-26T01:20:44;9.65;;;6.88;;
38859;SDS011;24609;48.316;16.174;2022-08-26T01:23:31;10.43;;;6.18;;
38859;SDS011;24609;48.316;16.174;2022-08-26T01:26:02;7.60;;;5.78;;
38859;SDS011;24609;48.316;16.174;2022-08-26T01:28:33;11.38;;;6.80;;
38859;SDS011;24609;48.316;16.174;2022-08-26T01:31:00;10.93;;;6.72;;
38859;SDS011;24609;48.316;16.174;2022-08-26T01:33:31;8.90;;;6.90;;
38859;SDS011;24609;48.316;16.174;2022-08-26T01:36:06;10.50;;;6.32;;
38859;SDS011;24609;48.316;16.174;2022-08-26T01:38:32;10.20;;;5.63;;
38859;SDS011;24609;48.316;16.174;2022-08-26T01:40:58;9.15;;;6.82;;
38859;SDS011;24609;48.316;16.174;2022-08-26T01:43:26;11.23;;;6.13;;
38859;SDS011;24609;48.316;16.174;2022-08-26T01:45:55;12.73;;;7.25;;
38859;SDS011;24609;48.316;16.174;2022-08-26T01:48:24;9.70;;;5.90;;
38859;SDS011;24609;48.316;16.174;2022-08-26T01:50:53;8.45;;;6.57;;
38859;SDS011;24609;48.316;16.174;2022-08-26T01:53:19;7.93;;;5.85;;
38859;SDS011;24609;48.316;16.174;2022-08-26T01:55:48;9.90;;;6.50;;
38859;SDS011;24609;48.316;16.174;2022-08-26T01:58:18;11.52;;;6.90;;
38859;SDS011;24609;48.316;16.174;2022-08-26T02:00:50;8.93;;;6.13;;
38859;SDS011;24609;48.316;16.174;2022-08-26T02:03:17;8.73;;;6.32;;
38859;SDS011;24609;48.316;16.174;2022-08-26T02:05:53;9.82;;;5.80;;
38859;SDS011;24609;48.316;16.174;2022-08-26T02:08:43;10.77;;;6.93;;
38859;SDS011;24609;48.316;16.174;2022-08-26T02:11:10;11.75;;;6.55;;
38859;SDS011;24609;48.316;16.174;2022-08-26T02:13:39;10.98;;;6.28;;
38859;SDS011;24609;48.316;16.174;2022-08-26T02:16:10;10.65;;;5.93;;
38859;SDS011;24609;48.316;16.174;2022-08-26T02:18:37;10.00;;;6.47;;
38859;SDS011;24609;48.316;16.174;2022-08-26T02:21:05;9.75;;;6.50;;
38859;SDS011;24609;48.316;16.174;2022-08-26T02:23:31;8.90;;;6.13;;
38859;SDS011;24609;48.316;16.174;2022-08-26T02:28:39;9.85;;;6.40;;
38859;SDS011;24609;48.316;16.174;2022-08-26T02:31:10;9.00;;;6.60;;
38859;SDS011;24609;48.316;16.174;2022-08-26T02:33:36;9.38;;;6.82;;
38859;SDS011;24609;48.316;16.174;2022-08-26T02:36:02;12.32;;;7.25;;
38859;SDS011;24609;48.316;16.174;2022-08-26T02:38:29;11.25;;;7.25;;
38859;SDS011;24609;48.316;16.174;2022-08-26T02:40:55;10.02;;;7.43;;
38859;SDS011;24609;48.316;16.174;2022-08-26T02:43:20;8.93;;;6.45;;
38859;SDS011;24609;48.316;16.174;2022-08-26T02:45:46;9.10;;;5.97;;
38859;SDS011;24609;48.316;16.174;2022-08-26T02:48:13;7.88;;;5.95;;
38859;SDS011;24609;48.316;16.174;2022-08-26T02:50:41;12.00;;;7.90;;
38859;SDS011;24609;48.316;16.174;2022-08-26T02:53:08;11.85;;;6.82;;
38859;SDS011;24609;48.316;16.174;2022-08-26T02:55:34;11.52;;;6.68;;
38859;SDS011;24609;48.316;16.174;2022-08-26T02:58:00;13.38;;;8.60;;
38859;SDS011;24609;48.316;16.174;2022-08-26T03:00:27;10.77;;;5.88;;
38859;SDS011;24609;48.316;16.174;2022-08-26T03:02:53;9.90;;;6.32;;
38859;SDS011;24609;48.316;16.174;2022-08-26T03:05:19;7.10;;;5.60;;
38859;SDS011;24609;48.316;16.174;2022-08-26T03:07:47;10.25;;;5.60;;
38859;SDS011;24609;48.316;16.174;2022-08-26T03:10:13;7.60;;;5.63;;
38859;SDS011;24609;48.316;16.174;2022-08-26T03:12:40;8.63;;;6.25;;
38859;SDS011;24609;48.316;16.174;2022-08-26T03:15:07;7.85;;;6.00;;
38859;SDS011;24609;48.316;16.174;2022-08-26T03:17:33;11.63;;;6.72;;
38859;SDS011;24609;48.316;16.174;2022-08-26T03:19:59;10.20;;;6.68;;
38859;SDS011;24609;48.316;16.174;2022-08-26T03:22:25;8.88;;;6.68;;
38859;SDS011;24609;48.316;16.174;2022-08-26T03:24:51;10.40;;;6.28;;
38859;SDS011;24609;48.316;16.174;2022-08-26T03:27:17;11.20;;;6.30;;
38859;SDS011;24609;48.316;16.174;2022-08-26T03:29:43;11.07;;;6.70;;
38859;SDS011;24609;48.316;16.174;2022-08-26T03:32:27;11.55;;;7.15;;
38859;SDS011;24609;48.316;16.174;2022-08-26T03:34:53;11.13;;;6.85;;
38859;SDS011;24609;48.316;16.174;2022-08-26T03:37:20;13.10;;;7.53;;
38859;SDS011;24609;48.316;16.174;2022-08-26T03:39:46;13.60;;;7.18;;
38859;SDS011;24609;48.316;16.174;2022-08-26T03:42:12;10.52;;;6.63;;
38859;SDS011;24609;48.316;16.174;2022-08-26T03:44:38;8.68;;;5.95;;
38859;SDS011;24609;48.316;16.174;2022-08-26T03:47:05;8.23;;;5.93;;
38859;SDS011;24609;48.316;16.174;2022-08-26T03:49:31;8.25;;;5.82;;
38859;SDS011;24609;48.316;16.174;2022-08-26T03:51:58;8.88;;;6.07;;
38859;SDS011;24609;48.316;16.174;2022-08-26T03:54:24;8.70;;;5.63;;
38859;SDS011;24609;48.316;16.174;2022-08-26T03:56:50;13.75;;;7.32;;
38859;SDS011;24609;48.316;16.174;2022-08-26T03:59:16;11.23;;;7.20;;
38859;SDS011;24609;48.316;16.174;2022-08-26T04:01:42;11.80;;;7.63;;
38859;SDS011;24609;48.316;16.174;2022-08-26T04:04:07;9.30;;;6.43;;
38859;SDS011;24609;48.316;16.174;2022-08-26T04:06:34;10.30;;;7.57;;
38859;SDS011;24609;48.316;16.174;2022-08-26T04:11:31;10.50;;;6.63;;
38859;SDS011;24609;48.316;16.174;2022-08-26T04:13:58;9.65;;;6.68;;
38859;SDS011;24609;48.316;16.174;2022-08-26T04:16:25;12.35;;;7.50;;
38859;SDS011;24609;48.316;16.174;2022-08-26T04:18:53;9.02;;;6.30;;
38859;SDS011;24609;48.316;16.174;2022-08-26T04:21:20;13.07;;;7.43;;
38859;SDS011;24609;48.316;16.174;2022-08-26T04:23:46;13.00;;;7.28;;
38859;SDS011;24609;48.316;16.174;2022-08-26T04:26:12;11.63;;;8.10;;
38859;SDS011;24609;48.316;16.174;2022-08-26T04:28:39;11.90;;;7.72;;
38859;SDS011;24609;48.316;16.174;2022-08-26T04:31:04;11.00;;;6.95;;
38859;SDS011;24609;48.316;16.174;2022-08-26T04:33:34;10.35;;;6.97;;
38859;SDS011;24609;48.316;16.174;2022-08-26T04:36:03;8.93;;;6.57;;
38859;SDS011;24609;48.316;16.174;2022-08-26T04:38:30;11.90;;;6.53;;
38859;SDS011;24609;48.316;16.174;2022-08-26T04:40:56;10.82;;;6.32;;
38859;SDS011;24609;48.316;16.174;2022-08-26T04:43:22;10.30;;;6.60;;
38859;SDS011;24609;48.316;16.174;2022-08-26T04:45:52;14.75;;;7.75;;
38859;SDS011;24609;48.316;16.174;2022-08-26T04:48:18;10.65;;;7.20;;
38859;SDS011;24609;48.316;16.174;2022-08-26T04:50:44;11.88;;;6.63;;
38859;SDS011;24609;48.316;16.174;2022-08-26T04:53:10;7.20;;;6.30;;
38859;SDS011;24609;48.316;16.174;2022-08-26T04:55:36;12.10;;;6.80;;
38859;SDS011;24609;48.316;16.174;2022-08-26T04:58:02;8.73;;;6.32;;
38859;SDS011;24609;48.316;16.174;2022-08-26T05:00:28;12.43;;;8.30;;
38859;SDS011;24609;48.316;16.174;2022-08-26T05:02:53;15.15;;;8.98;;
38859;SDS011;24609;48.316;16.174;2022-08-26T05:05:19;14.52;;;9.35;;
38859;SDS011;24609;48.316;16.174;2022-08-26T05:07:45;15.30;;;9.52;;
38859;SDS011;24609;48.316;16.174;2022-08-26T05:10:10;16.40;;;9.27;;
38859;SDS011;24609;48.316;16.174;2022-08-26T05:12:36;14.50;;;8.80;;
38859;SDS011;24609;48.316;16.174;2022-08-26T05:15:02;15.32;;;9.82;;
38859;SDS011;24609;48.316;16.174;2022-08-26T05:17:28;15.15;;;10.23;;
38859;SDS011;24609;48.316;16.174;2022-08-26T05:19:53;13.88;;;9.63;;
38859;SDS011;24609;48.316;16.174;2022-08-26T05:22:19;15.68;;;9.75;;
38859;SDS011;24609;48.316;16.174;2022-08-26T05:24:45;16.42;;;9.73;;
38859;SDS011;24609;48.316;16.174;2022-08-26T05:27:11;14.65;;;9.65;;
38859;SDS011;24609;48.316;16.174;2022-08-26T05:29:38;13.07;;;8.68;;
38859;SDS011;24609;48.316;16.174;2022-08-26T05:32:04;15.07;;;9.85;;
38859;SDS011;24609;48.316;16.174;2022-08-26T05:34:31;12.85;;;9.45;;
38859;SDS011;24609;48.316;16.174;2022-08-26T05:36:57;16.88;;;10.32;;
38859;SDS011;24609;48.316;16.174;2022-08-26T05:39:23;15.55;;;10.38;;
38859;SDS011;24609;48.316;16.174;2022-08-26T05:41:49;14.30;;;10.05;;
38859;SDS011;24609;48.316;16.174;2022-08-26T05:44:15;15.65;;;10.70;;
38859;SDS011;24609;48.316;16.174;2022-08-26T05:46:43;18.95;;;11.35;;
38859;SDS011;24609;48.316;16.174;2022-08-26T05:49:09;17.83;;;10.55;;
38859;SDS011;24609;48.316;16.174;2022-08-26T05:51:37;15.63;;;10.52;;
38859;SDS011;24609;48.316;16.174;2022-08-26T05:54:03;12.20;;;9.35;;
38859;SDS011;24609;48.316;16.174;2022-08-26T05:56:31;11.00;;;9.05;;
38859;SDS011;24609;48.316;16.174;2022-08-26T05:58:57;12.27;;;9.75;;
38859;SDS011;24609;48.316;16.174;2022-08-26T06:01:25;14.10;;;8.75;;
38859;SDS011;24609;48.316;16.174;2022-08-26T06:03:54;17.08;;;10.00;;
38859;SDS011;24609;48.316;16.174;2022-08-26T06:06:29;14.77;;;9.85;;
38859;SDS011;24609;48.316;16.174;2022-08-26T06:08:57;11.95;;;8.88;;
38859;SDS011;24609;48.316;16.174;2022-08-26T06:11:24;18.77;;;11.00;;
38859;SDS011;24609;48.316;16.174;2022-08-26T06:13:52;12.35;;;9.52;;
38859;SDS011;24609;48.316;16.174;2022-08-26T06:16:20;17.77;;;10.35;;
38859;SDS011;24609;48.316;16.174;2022-08-26T06:18:47;17.02;;;10.30;;
38859;SDS011;24609;48.316;16.174;2022-08-26T06:21:18;22.15;;;11.32;;
38859;SDS011;24609;48.316;16.174;2022-08-26T06:23:50;18.52;;;9.80;;
38859;SDS011;24609;48.316;16.174;2022-08-26T06:26:36;14.65;;;9.38;;
38859;SDS011;24609;48.316;16.174;2022-08-26T06:29:04;15.30;;;10.48;;
38859;SDS011;24609;48.316;16.174;2022-08-26T06:31:30;15.85;;;8.93;;
38859;SDS011;24609;48.316;16.174;2022-08-26T06:33:58;14.77;;;8.90;;
38859;SDS011;24609;48.316;16.174;2022-08-26T06:36:25;12.20;;;8.63;;
38859;SDS011;24609;48.316;16.174;2022-08-26T06:38:53;9.32;;;8.07;;
38859;SDS011;24609;48.316;16.174;2022-08-26T06:41:20;11.10;;;8.73;;
38859;SDS011;24609;48.316;16.174;2022-08-26T06:43:46;13.90;;;9.15;;
38859;SDS011;24609;48.316;16.174;2022-08-26T06:46:13;15.57;;;10.30;;
38859;SDS011;24609;48.316;16.174;2022-08-26T06:48:41;14.95;;;9.15;;
38859;SDS011;24609;48.316;16.174;2022-08-26T06:51:11;12.32;;;9.40;;
38859;SDS011;24609;48.316;16.174;2022-08-26T06:53:42;10.70;;;8.80;;
38859;SDS011;24609;48.316;16.174;2022-08-26T06:56:11;13.82;;;9.18;;
38859;SDS011;24609;48.316;16.174;2022-08-26T06:58:38;14.05;;;9.82;;
38859;SDS011;24609;48.316;16.174;2022-08-26T07:01:13;14.77;;;8.95;;
38859;SDS011;24609;48.316;16.174;2022-08-26T07:03:44;14.25;;;9.32;;
38859;SDS011;24609;48.316;16.174;2022-08-26T07:06:11;9.00;;;7.60;;
38859;SDS011;24609;48.316;16.174;2022-08-26T07:08:37;12.60;;;8.63;;
38859;SDS011;24609;48.316;16.174;2022-08-26T07:11:03;13.65;;;8.98;;
38859;SDS011;24609;48.316;16.174;2022-08-26T07:13:30;10.35;;;8.40;;
38859;SDS011;24609;48.316;16.174;2022-08-26T07:15:56;13.15;;;8.90;;
38859;SDS011;24609;48.316;16.174;2022-08-26T07:18:22;10.90;;;8.60;;
38859;SDS011;24609;48.316;16.174;2022-08-26T07:20:47;11.93;;;7.97;;
38859;SDS011;24609;48.316;16.174;2022-08-26T07:23:13;12.27;;;8.07;;
38859;SDS011;24609;48.316;16.174;2022-08-26T07:25:39;10.23;;;7.60;;
38859;SDS011;24609;48.316;16.174;2022-08-26T07:28:05;12.68;;;8.77;;
38859;SDS011;24609;48.316;16.174;2022-08-26T07:30:32;11.25;;;8.45;;
38859;SDS011;24609;48.316;16.174;2022-08-26T07:33:02;11.95;;;8.45;;
38859;SDS011;24609;48.316;16.174;2022-08-26T07:35:28;15.40;;;9.25;;
38859;SDS011;24609;48.316;16.174;2022-08-26T07:37:54;12.77;;;8.18;;
38859;SDS011;24609;48.316;16.174;2022-08-26T07:40:20;10.10;;;8.25;;
38859;SDS011;24609;48.316;16.174;2022-08-26T07:42:46;14.77;;;8.85;;
38859;SDS011;24609;48.316;16.174;2022-08-26T07:45:12;12.55;;;8.23;;
38859;SDS011;24609;48.316;16.174;2022-08-26T07:47:37;11.45;;;8.02;;
38859;SDS011;24609;48.316;16.174;2022-08-26T07:50:03;12.98;;;7.88;;
38859;SDS011;24609;48.316;16.174;2022-08-26T07:52:29;9.32;;;8.30;;
38859;SDS011;24609;48.316;16.174;2022-08-26T07:54:56;10.48;;;7.65;;
38859;SDS011;24609;48.316;16.174;2022-08-26T07:57:22;10.02;;;7.13;;
38859;SDS011;24609;48.316;16.174;2022-08-26T07:59:48;11.02;;;7.40;;
38859;SDS011;24609;48.316;16.174;2022-08-26T08:02:14;11.38;;;9.77;;
38859;SDS011;24609;48.316;16.174;2022-08-26T08:04:40;11.93;;;7.63;;
38859;SDS011;24609;48.316;16.174;2022-08-26T08:07:05;11.35;;;7.40;;
38859;SDS011;24609;48.316;16.174;2022-08-26T08:09:31;12.95;;;8.55;;
38859;SDS011;24609;48.316;16.174;2022-08-26T08:11:57;12.20;;;8.23;;
38859;SDS011;24609;48.316;16.174;2022-08-26T08:14:23;12.00;;;8.00;;
38859;SDS011;24609;48.316;16.174;2022-08-26T08:16:49;11.43;;;8.65;;
38859;SDS011;24609;48.316;16.174;2022-08-26T08:19:14;12.60;;;9.05;;
38859;SDS011;24609;48.316;16.174;2022-08-26T08:21:41;10.18;;;8.35;;
38859;SDS011;24609;48.316;16.174;2022-08-26T08:24:07;14.02;;;8.32;;
38859;SDS011;24609;48.316;16.174;2022-08-26T08:26:34;14.90;;;8.30;;
38859;SDS011;24609;48.316;16.174;2022-08-26T08:29:01;13.07;;;7.95;;
38859;SDS011;24609;48.316;16.174;2022-08-26T08:31:29;10.90;;;7.25;;
38859;SDS011;24609;48.316;16.174;2022-08-26T08:33:56;11.85;;;9.07;;
38859;SDS011;24609;48.316;16.174;2022-08-26T08:36:22;11.07;;;8.45;;
38859;SDS011;24609;48.316;16.174;2022-08-26T08:38:48;10.32;;;7.85;;
38859;SDS011;24609;48.316;16.174;2022-08-26T08:41:34;11.55;;;7.75;;
38859;SDS011;24609;48.316;16.174;2022-08-26T08:44:23;9.95;;;7.72;;
38859;SDS011;24609;48.316;16.174;2022-08-26T08:46:51;12.30;;;8.18;;
38859;SDS011;24609;48.316;16.174;2022-08-26T08:49:23;9.85;;;8.73;;
38859;SDS011;24609;48.316;16.174;2022-08-26T08:51:54;10.07;;;8.00;;
38859;SDS011;24609;48.316;16.174;2022-08-26T08:54:26;10.13;;;7.70;;
38859;SDS011;24609;48.316;16.174;2022-08-26T08:57:05;13.88;;;9.60;;
38859;SDS011;24609;48.316;16.174;2022-08-26T08:59:53;16.95;;;8.48;;
38859;SDS011;24609;48.316;16.174;2022-08-26T09:02:52;10.90;;;8.52;;
38859;SDS011;24609;48.316;16.174;2022-08-26T09:05:29;9.90;;;8.43;;
38859;SDS011;24609;48.316;16.174;2022-08-26T09:07:58;10.40;;;7.75;;
38859;SDS011;24609;48.316;16.174;2022-08-26T09:10:39;11.07;;;8.15;;
38859;SDS011;24609;48.316;16.174;2022-08-26T09:13:16;10.90;;;7.63;;
38859;SDS011;24609;48.316;16.174;2022-08-26T09:16:00;10.82;;;8.15;;
38859;SDS011;24609;48.316;16.174;2022-08-26T09:21:08;9.93;;;8.20;;
38859;SDS011;24609;48.316;16.174;2022-08-26T09:23:37;11.65;;;8.52;;
38859;SDS011;24609;48.316;16.174;2022-08-26T09:28:56;9.93;;;7.22;;
38859;SDS011;24609;48.316;16.174;2022-08-26T09:31:30;11.77;;;9.18;;
38859;SDS011;24609;48.316;16.174;2022-08-26T09:34:50;9.90;;;7.10;;
38859;SDS011;24609;48.316;16.174;2022-08-26T09:36:49;13.38;;;8.30;;
38859;SDS011;24609;48.316;16.174;2022-08-26T09:44:32;10.38;;;7.63;;
38859;SDS011;24609;48.316;16.174;2022-08-26T09:47:03;13.57;;;8.07;;
38859;SDS011;24609;48.316;16.174;2022-08-26T09:49:35;10.38;;;7.03;;
38859;SDS011;24609;48.316;16.174;2022-08-26T09:54:39;9.88;;;7.95;;
38859;SDS011;24609;48.316;16.174;2022-08-26T09:57:43;10.30;;;8.00;;
38859;SDS011;24609;48.316;16.174;2022-08-26T09:59:59;7.78;;;6.75;;
38859;SDS011;24609;48.316;16.174;2022-08-26T10:04:58;9.85;;;7.32;;
38859;SDS011;24609;48.316;16.174;2022-08-26T10:07:38;11.38;;;7.95;;
38859;SDS011;24609;48.316;16.174;2022-08-26T10:10:08;13.63;;;7.85;;
38859;SDS011;24609;48.316;16.174;2022-08-26T10:12:38;9.18;;;7.47;;
38859;SDS011;24609;48.316;16.174;2022-08-26T10:15:12;13.23;;;8.25;;
38859;SDS011;24609;48.316;16.174;2022-08-26T10:17:40;9.07;;;7.75;;
38859;SDS011;24609;48.316;16.174;2022-08-26T10:20:22;7.75;;;6.63;;
38859;SDS011;24609;48.316;16.174;2022-08-26T10:22:53;10.88;;;7.28;;
38859;SDS011;24609;48.316;16.174;2022-08-26T10:25:25;12.20;;;8.15;;
38859;SDS011;24609;48.316;16.174;2022-08-26T10:27:59;9.93;;;7.30;;
38859;SDS011;24609;48.316;16.174;2022-08-26T10:30:36;8.00;;;6.70;;
38859;SDS011;24609;48.316;16.174;2022-08-26T10:33:08;13.40;;;8.10;;
38859;SDS011;24609;48.316;16.174;2022-08-26T10:35:39;8.98;;;7.43;;
38859;SDS011;24609;48.316;16.174;2022-08-26T10:38:15;11.77;;;8.05;;
38859;SDS011;24609;48.316;16.174;2022-08-26T10:40:50;9.13;;;7.32;;
38859;SDS011;24609;48.316;16.174;2022-08-26T10:43:31;15.65;;;8.48;;
38859;SDS011;24609;48.316;16.174;2022-08-26T10:46:06;12.90;;;8.07;;
38859;SDS011;24609;48.316;16.174;2022-08-26T10:51:17;9.45;;;6.97;;
38859;SDS011;24609;48.316;16.174;2022-08-26T11:02:09;8.70;;;6.95;;
38859;SDS011;24609;48.316;16.174;2022-08-26T11:28:34;7.40;;;6.70;;
38859;SDS011;24609;48.316;16.174;2022-08-26T11:31:00;7.45;;;6.35;;
38859;SDS011;24609;48.316;16.174;2022-08-26T11:39:25;9.25;;;6.18;;
38859;SDS011;24609;48.316;16.174;2022-08-26T11:42:00;9.45;;;6.47;;
38859;SDS011;24609;48.316;16.174;2022-08-26T11:44:40;7.30;;;5.93;;
38859;SDS011;24609;48.316;16.174;2022-08-26T11:47:08;10.45;;;6.13;;
38859;SDS011;24609;48.316;16.174;2022-08-26T11:49:37;8.30;;;6.28;;
38859;SDS011;24609;48.316;16.174;2022-08-26T11:52:10;9.10;;;6.43;;
38859;SDS011;24609;48.316;16.174;2022-08-26T11:54:39;7.38;;;6.45;;
38859;SDS011;24609;48.316;16.174;2022-08-26T11:57:05;8.55;;;6.53;;
38859;SDS011;24609;48.316;16.174;2022-08-26T11:59:36;10.00;;;6.30;;
38859;SDS011;24609;48.316;16.174;2022-08-26T12:04:37;11.13;;;6.47;;
38859;SDS011;24609;48.316;16.174;2022-08-26T12:07:05;8.10;;;6.13;;
38859;SDS011;24609;48.316;16.174;2022-08-26T12:09:34;8.00;;;6.47;;
38859;SDS011;24609;48.316;16.174;2022-08-26T12:12:21;7.57;;;6.15;;
38859;SDS011;24609;48.316;16.174;2022-08-26T12:15:03;7.97;;;6.43;;
38859;SDS011;24609;48.316;16.174;2022-08-26T12:17:38;9.43;;;6.70;;
38859;SDS011;24609;48.316;16.174;2022-08-26T12:20:04;9.32;;;6.35;;
38859;SDS011;24609;48.316;16.174;2022-08-26T12:22:41;7.20;;;6.30;;
38859;SDS011;24609;48.316;16.174;2022-08-26T12:25:07;10.85;;;5.88;;
38859;SDS011;24609;48.316;16.174;2022-08-26T12:27:35;9.55;;;6.15;;
38859;SDS011;24609;48.316;16.174;2022-08-26T12:30:18;9.07;;;6.70;;
38859;SDS011;24609;48.316;16.174;2022-08-26T12:32:50;8.95;;;6.70;;
38859;SDS011;24609;48.316;16.174;2022-08-26T12:35:27;8.80;;;6.43;;
38859;SDS011;24609;48.316;16.174;2022-08-26T12:37:53;10.48;;;6.78;;
38859;SDS011;24609;48.316;16.174;2022-08-26T12:42:51;11.93;;;6.30;;
38859;SDS011;24609;48.316;16.174;2022-08-26T12:47:53;12.30;;;6.60;;
38859;SDS011;24609;48.316;16.174;2022-08-26T12:50:24;7.82;;;6.20;;
38859;SDS011;24609;48.316;16.174;2022-08-26T12:55:21;9.73;;;6.00;;
38859;SDS011;24609;48.316;16.174;2022-08-26T12:57:49;12.27;;;6.05;;
38859;SDS011;24609;48.316;16.174;2022-08-26T13:00:27;11.90;;;6.20;;
38859;SDS011;24609;48.316;16.174;2022-08-26T13:02:53;10.18;;;6.93;;
38859;SDS011;24609;48.316;16.174;2022-08-26T13:05:20;7.28;;;5.70;;
38859;SDS011;24609;48.316;16.174;2022-08-26T13:10:37;6.82;;;5.95;;
38859;SDS011;24609;48.316;16.174;2022-08-26T13:13:04;7.65;;;5.35;;
38859;SDS011;24609;48.316;16.174;2022-08-26T13:15:30;8.68;;;6.20;;
38859;SDS011;24609;48.316;16.174;2022-08-26T13:17:56;9.20;;;6.03;;
38859;SDS011;24609;48.316;16.174;2022-08-26T13:20:21;7.25;;;5.65;;
38859;SDS011;24609;48.316;16.174;2022-08-26T13:22:48;6.40;;;5.47;;
38859;SDS011;24609;48.316;16.174;2022-08-26T13:25:15;7.55;;;5.65;;
38859;SDS011;24609;48.316;16.174;2022-08-26T13:27:41;10.17;;;5.80;;
38859;SDS011;24609;48.316;16.174;2022-08-26T13:30:07;6.40;;;5.20;;
38859;SDS011;24609;48.316;16.174;2022-08-26T13:32:34;7.40;;;5.90;;
38859;SDS011;24609;48.316;16.174;2022-08-26T13:35:00;7.80;;;5.32;;
38859;SDS011;24609;48.316;16.174;2022-08-26T13:37:26;6.97;;;5.40;;
38859;SDS011;24609;48.316;16.174;2022-08-26T13:39:52;7.50;;;5.45;;
38859;SDS011;24609;48.316;16.174;2022-08-26T13:42:19;7.68;;;4.90;;
38859;SDS011;24609;48.316;16.174;2022-08-26T13:47:14;7.65;;;5.57;;
38859;SDS011;24609;48.316;16.174;2022-08-26T13:49:42;7.70;;;5.10;;
38859;SDS011;24609;48.316;16.174;2022-08-26T13:52:09;9.95;;;6.00;;
38859;SDS011;24609;48.316;16.174;2022-08-26T13:54:35;9.50;;;6.15;;
38859;SDS011;24609;48.316;16.174;2022-08-26T13:57:01;5.38;;;4.60;;
38859;SDS011;24609;48.316;16.174;2022-08-26T13:59:27;10.43;;;5.00;;
38859;SDS011;24609;48.316;16.174;2022-08-26T14:01:53;6.30;;;5.32;;
38859;SDS011;24609;48.316;16.174;2022-08-26T14:04:18;9.75;;;4.90;;
38859;SDS011;24609;48.316;16.174;2022-08-26T14:06:44;7.82;;;5.00;;
38859;SDS011;24609;48.316;16.174;2022-08-26T14:09:10;10.05;;;4.60;;
38859;SDS011;24609;48.316;16.174;2022-08-26T14:11:35;8.23;;;5.50;;
38859;SDS011;24609;48.316;16.174;2022-08-26T14:14:01;5.97;;;5.03;;
38859;SDS011;24609;48.316;16.174;2022-08-26T14:16:28;10.05;;;5.47;;
38859;SDS011;24609;48.316;16.174;2022-08-26T14:18:58;7.07;;;5.28;;
38859;SDS011;24609;48.316;16.174;2022-08-26T14:21:28;7.10;;;5.00;;
38859;SDS011;24609;48.316;16.174;2022-08-26T14:23:56;10.77;;;4.75;;
38859;SDS011;24609;48.316;16.174;2022-08-26T14:26:21;8.18;;;5.07;;
38859;SDS011;24609;48.316;16.174;2022-08-26T14:28:47;8.88;;;4.97;;
38859;SDS011;24609;48.316;16.174;2022-08-26T14:31:13;8.85;;;4.97;;
38859;SDS011;24609;48.316;16.174;2022-08-26T14:33:39;8.25;;;5.10;;
38859;SDS011;24609;48.316;16.174;2022-08-26T14:36:05;6.82;;;5.20;;
38859;SDS011;24609;48.316;16.174;2022-08-26T14:38:49;7.53;;;5.80;;
38859;SDS011;24609;48.316;16.174;2022-08-26T14:41:16;6.63;;;5.05;;
38859;SDS011;24609;48.316;16.174;2022-08-26T14:43:45;6.82;;;4.40;;
38859;SDS011;24609;48.316;16.174;2022-08-26T14:46:14;10.15;;;4.82;;
38859;SDS011;24609;48.316;16.174;2022-08-26T14:48:40;6.57;;;4.27;;
38859;SDS011;24609;48.316;16.174;2022-08-26T14:51:06;12.18;;;5.28;;
38859;SDS011;24609;48.316;16.174;2022-08-26T14:53:32;5.70;;;4.00;;
38859;SDS011;24609;48.316;16.174;2022-08-26T14:56:16;7.70;;;4.70;;
38859;SDS011;24609;48.316;16.174;2022-08-26T14:58:42;8.45;;;4.95;;
38859;SDS011;24609;48.316;16.174;2022-08-26T15:01:08;11.32;;;4.97;;
38859;SDS011;24609;48.316;16.174;2022-08-26T15:03:36;10.07;;;5.70;;
38859;SDS011;24609;48.316;16.174;2022-08-26T15:06:01;6.90;;;5.38;;
38859;SDS011;24609;48.316;16.174;2022-08-26T15:08:28;11.27;;;5.30;;
38859;SDS011;24609;48.316;16.174;2022-08-26T15:10:54;7.88;;;4.75;;
38859;SDS011;24609;48.316;16.174;2022-08-26T15:13:20;5.75;;;5.15;;
38859;SDS011;24609;48.316;16.174;2022-08-26T15:15:45;12.93;;;5.20;;
38859;SDS011;24609;48.316;16.174;2022-08-26T15:18:11;7.40;;;4.68;;
38859;SDS011;24609;48.316;16.174;2022-08-26T15:20:37;8.55;;;5.10;;
38859;SDS011;24609;48.316;16.174;2022-08-26T15:23:02;6.18;;;4.60;;
38859;SDS011;24609;48.316;16.174;2022-08-26T15:25:30;8.50;;;4.90;;
38859;SDS011;24609;48.316;16.174;2022-08-26T15:27:56;8.38;;;6.03;;
38859;SDS011;24609;48.316;16.174;2022-08-26T15:30:21;8.82;;;4.53;;
38859;SDS011;24609;48.316;16.174;2022-08-26T15:32:47;8.85;;;5.53;;
38859;SDS011;24609;48.316;16.174;2022-08-26T15:35:13;9.63;;;4.95;;
38859;SDS011;24609;48.316;16.174;2022-08-26T15:37:38;7.50;;;5.05;;
38859;SDS011;24609;48.316;16.174;2022-08-26T15:40:04;9.68;;;5.68;;
38859;SDS011;24609;48.316;16.174;2022-08-26T15:42:33;6.75;;;5.00;;
38859;SDS011;24609;48.316;16.174;2022-08-26T15:44:58;8.77;;;5.00;;
38859;SDS011;24609;48.316;16.174;2022-08-26T15:47:24;5.55;;;4.55;;
38859;SDS011;24609;48.316;16.174;2022-08-26T15:49:50;7.18;;;4.57;;
38859;SDS011;24609;48.316;16.174;2022-08-26T15:52:16;7.72;;;5.32;;